Airfield :
LOGIN :

Register | Disclaimer

   EN    FR    IT 

 










Legend :    VFR   Marginal VFR   IFR   Intensive IFR   Very Intensive IFR
Visi :
Ceiling :
>= 8 km
>= 3000ft
5 to 8 km
1000 to 3000 ft
1500m to 5 km
500 to 1000 ft
800 to 1500m
200 to 500 ft
< 800m
< 200 ft
Symbols :   Thunderstorms  Fog  Heavy snow  Heavy precipitations  Wind > 20 kt
SIGMETs :     Misc.  Thunderstorms  Icing  Turbulence  Mountain Waves  Volcanic Ashes







- Airport Elevation : 74 ft
- IATA code : NDZ


ETMN - Cuxhaven Nordholz Sea AB

CURRENT METAR :
  • 190636Z 12006KT 0700 R08/2700D FG OVC001 11/10 Q1013 RED YLO TEMPO RED

EXPIRED METARs :
  • 190629Z 12007KT 1500 R08/3400D BR OVC002 11/10 Q1013 AMB YLO TEMPO AMB
  • 190543Z 11007KT 4500 BR BKN004 11/10 Q1012 YLO WHT TEMPO YLO
  • 190520Z 11006KT 7000 BKN005 11/10 Q1012 YLO WHT TEMPO YLO
  • 190420Z 12007KT 8000 BKN004 11/10 Q1013 YLO WHT TEMPO YLO

TAF AMD TAF ETMN
Valid from the 19 at 06:00 until the 19 at 14:00 UTC


190633Z 1906/1914 11007KT 2000 BR BKN003 BKN100
TEMPO 1906/1910 13008KT 0500 FG BKN001 BKN020
No reported NOTAMs for that airfield.



MET'MAP, your aeronautical weather chart ! - Copyright ORBIFLY December 2007 - Disclaimer

ORBIFLY MET'MAP TEAM :

Programming & Development : Alexandra Zaïnal
Concept & Development : Baudouin d'Aumeries
Co-Development & Prog : Marc-Olivier Méhu
Technical & hardware support : Manuel Goepfert

Contact : metmap@orbifly.com




SOURCES & CREDITS :

   NOAA